createdAt,value
2019-05-03T00:00:02.775Z,88.53
2019-05-03T00:01:02.530Z,88.23
2019-05-03T00:02:02.531Z,88.02
2019-05-03T00:03:02.506Z,87.60
2019-05-03T00:04:02.683Z,88.12
2019-05-03T00:05:02.520Z,88.43
2019-05-03T00:06:02.472Z,88.53
2019-05-03T00:07:02.775Z,88.84
2019-05-03T00:08:02.462Z,87.92
2019-05-03T00:09:02.449Z,88.02
2019-05-03T00:10:02.902Z,88.84
2019-05-03T00:11:02.526Z,87.71
2019-05-03T00:12:02.520Z,88.02
2019-05-03T00:13:02.425Z,88.02
2019-05-03T00:14:09.949Z,88.33
2019-05-03T00:15:12.008Z,88.33
2019-05-03T00:16:12.228Z,88.23
2019-05-03T00:17:11.739Z,88.02
2019-05-03T00:18:11.743Z,88.53
2019-05-03T00:19:03.332Z,87.81
2019-05-03T00:20:11.666Z,87.30
2019-05-03T00:21:11.683Z,87.40
2019-05-03T00:22:09.861Z,87.81
2019-05-03T00:23:02.942Z,87.81
2019-05-03T00:24:02.500Z,88.74
2019-05-03T00:25:07.975Z,88.23
2019-05-03T00:26:03.302Z,88.95
2019-05-03T00:27:02.250Z,88.43
2019-05-03T00:28:02.226Z,88.95
2019-05-03T00:29:02.288Z,89.05
2019-05-03T00:30:02.873Z,88.53
2019-05-03T00:31:02.226Z,88.95
2019-05-03T00:32:02.193Z,88.74
2019-05-03T00:33:02.878Z,88.84
2019-05-03T00:34:02.351Z,88.95
2019-05-03T00:35:02.257Z,88.33
2019-05-03T00:36:02.511Z,89.05
2019-05-03T00:37:02.130Z,90.18
2019-05-03T00:38:02.186Z,88.74
2019-05-03T00:39:02.101Z,88.57
2019-05-03T00:40:02.105Z,88.68
2019-05-03T00:41:02.098Z,88.78
2019-05-03T00:42:02.711Z,88.74
2019-05-03T00:43:02.433Z,88.99
2019-05-03T00:44:02.266Z,87.34
2019-05-03T00:45:02.457Z,87.75
2019-05-03T00:46:02.153Z,87.65
2019-05-03T00:47:02.376Z,87.65
2019-05-03T00:48:02.099Z,86.82
2019-05-03T00:49:03.734Z,87.75
2019-05-03T00:50:02.773Z,86.76
2019-05-03T00:51:02.400Z,86.31
2019-05-03T00:52:02.416Z,86.35
2019-05-03T00:53:02.467Z,85.22
2019-05-03T00:54:02.111Z,84.19
2019-05-03T00:55:02.346Z,84.39
2019-05-03T00:56:01.944Z,84.19
2019-05-03T00:57:02.666Z,83.73
2019-05-03T00:58:02.456Z,84.39
2019-05-03T00:59:02.291Z,83.67
2019-05-03T01:00:02.365Z,83.87
2019-05-03T01:01:02.718Z,84.08
2019-05-03T01:02:02.725Z,84.19
2019-05-03T01:03:02.295Z,85.42
2019-05-03T01:04:01.934Z,85.63
2019-05-03T01:05:02.850Z,84.91
2019-05-03T01:06:02.283Z,84.80
2019-05-03T01:07:02.329Z,84.59
2019-05-03T01:08:02.035Z,84.19
2019-05-03T01:09:02.655Z,83.56
2019-05-03T01:10:02.744Z,83.26
2019-05-03T01:11:02.142Z,84.19
2019-05-03T01:12:01.992Z,84.59
2019-05-03T01:13:01.780Z,83.77
2019-05-03T01:14:02.665Z,84.64
2019-05-03T01:15:02.130Z,83.15
2019-05-03T01:16:02.760Z,83.50
2019-05-03T01:17:02.636Z,83.87
2019-05-03T01:18:01.724Z,84.08
2019-05-03T01:19:02.609Z,83.81
2019-05-03T01:20:02.789Z,82.43
2019-05-03T01:21:02.313Z,82.12
2019-05-03T01:22:02.047Z,81.20
2019-05-03T01:23:02.079Z,82.33
2019-05-03T01:24:01.759Z,81.61
2019-05-03T01:25:02.947Z,81.20
2019-05-03T01:26:02.486Z,81.34
2019-05-03T01:27:02.024Z,81.30
2019-05-03T01:28:01.636Z,82.26
2019-05-03T01:29:02.700Z,81.96
2019-05-03T01:30:02.977Z,81.54
2019-05-03T01:31:02.515Z,81.65
2019-05-03T01:32:02.315Z,81.44
2019-05-03T01:33:02.787Z,82.06
2019-05-03T01:34:02.356Z,82.68
2019-05-03T01:35:03.283Z,82.98
2019-05-03T01:36:02.783Z,83.09
2019-05-03T01:37:02.669Z,82.89
2019-05-03T01:38:02.576Z,83.19
2019-05-03T01:39:02.151Z,83.71
2019-05-03T01:40:02.356Z,82.98
2019-05-03T01:41:01.853Z,83.19
2019-05-03T01:42:02.685Z,83.54
2019-05-03T01:43:02.196Z,83.40
2019-05-03T01:44:01.950Z,83.19
2019-05-03T01:45:01.955Z,83.54
2019-05-03T01:46:02.756Z,82.37
2019-05-03T01:47:02.304Z,82.98
2019-05-03T01:48:02.054Z,82.51
2019-05-03T01:49:01.650Z,82.26
2019-05-03T01:50:02.871Z,82.20
2019-05-03T01:51:02.857Z,81.65
2019-05-03T01:52:02.207Z,80.51
2019-05-03T01:53:01.933Z,81.13
2019-05-03T01:54:01.705Z,81.65
2019-05-03T01:55:03.312Z,81.07
2019-05-03T01:56:01.247Z,80.82
2019-05-03T01:57:02.448Z,80.44
2019-05-03T01:58:01.893Z,81.37
2019-05-03T01:59:01.864Z,81.68
2019-05-03T02:00:02.884Z,80.86
2019-05-03T02:01:02.839Z,80.55
2019-05-03T02:02:02.274Z,80.55
2019-05-03T02:03:01.678Z,80.55
2019-05-03T02:04:02.868Z,80.10
2019-05-03T02:05:02.534Z,81.07
2019-05-03T02:06:02.408Z,81.07
2019-05-03T02:07:02.287Z,81.17
2019-05-03T02:08:02.079Z,81.27
2019-05-03T02:09:01.640Z,80.96
2019-05-03T02:10:02.783Z,80.93
2019-05-03T02:11:02.234Z,81.27
2019-05-03T02:12:02.110Z,82.10
2019-05-03T02:13:01.701Z,82.20
2019-05-03T02:14:01.714Z,82.40
2019-05-03T02:15:02.453Z,81.68
2019-05-03T02:16:02.261Z,81.58
2019-05-03T02:17:01.812Z,81.68
2019-05-03T02:18:02.654Z,81.07
2019-05-03T02:19:02.488Z,81.48
2019-05-03T02:20:02.275Z,81.07
2019-05-03T02:21:01.688Z,81.79
2019-05-03T02:22:02.776Z,80.96
2019-05-03T02:23:02.789Z,81.07
2019-05-03T02:24:02.602Z,82.10
2019-05-03T02:25:01.719Z,82.20
2019-05-03T02:26:02.891Z,81.68
2019-05-03T02:27:02.098Z,81.79
2019-05-03T02:28:01.965Z,81.68
2019-05-03T02:29:01.872Z,81.37
2019-05-03T02:30:02.965Z,81.58
2019-05-03T02:31:03.614Z,81.99
2019-05-03T02:32:03.216Z,82.92
2019-05-03T02:33:03.718Z,83.54
2019-05-03T02:34:03.291Z,82.65
2019-05-03T02:35:02.811Z,82.10
2019-05-03T02:36:03.662Z,82.61
2019-05-03T02:37:03.010Z,81.99
2019-05-03T02:38:03.369Z,82.65
2019-05-03T02:39:02.866Z,83.58
2019-05-03T02:40:03.903Z,82.86
2019-05-03T02:41:02.953Z,83.06
2019-05-03T02:42:10.218Z,83.58
2019-05-03T02:43:01.709Z,83.48
2019-05-03T02:44:00.707Z,83.37
2019-05-03T02:45:00.705Z,83.99
2019-05-03T02:46:00.682Z,84.20
2019-05-03T02:47:00.673Z,83.93
2019-05-03T02:48:00.656Z,83.83
2019-05-03T02:49:00.636Z,85.21
2019-05-03T02:50:00.633Z,84.28
2019-05-03T02:51:00.626Z,84.89
2019-05-03T02:52:00.607Z,84.79
2019-05-03T02:53:00.607Z,84.59
2019-05-03T02:54:00.600Z,84.28
2019-05-03T02:55:00.590Z,83.97
2019-05-03T02:56:13.987Z,84.89
2019-05-03T02:57:01.662Z,84.79
2019-05-03T02:58:00.572Z,84.28
2019-05-03T02:59:00.742Z,84.17
2019-05-03T03:00:00.522Z,84.42
2019-05-03T03:01:00.523Z,84.00
2019-05-03T03:02:00.499Z,84.94
2019-05-03T03:03:00.523Z,85.14
2019-05-03T03:04:00.482Z,84.31
2019-05-03T03:05:00.455Z,84.94
2019-05-03T03:06:00.469Z,84.15
2019-05-03T03:07:00.447Z,84.94
2019-05-03T03:08:00.444Z,84.97
2019-05-03T03:09:00.429Z,84.45
2019-05-03T03:10:00.497Z,84.87
2019-05-03T03:11:00.494Z,85.39
2019-05-03T03:12:00.403Z,84.83
2019-05-03T03:13:00.381Z,84.87
2019-05-03T03:14:00.356Z,84.15
2019-05-03T03:15:00.346Z,84.15
2019-05-03T03:16:00.362Z,84.36
2019-05-03T03:17:00.434Z,84.56
2019-05-03T03:18:00.340Z,84.97
2019-05-03T03:19:00.300Z,85.74
2019-05-03T03:20:00.288Z,86.01
2019-05-03T03:21:00.291Z,85.53
2019-05-03T03:22:00.302Z,85.94
2019-05-03T03:23:00.281Z,85.32
2019-05-03T03:24:00.248Z,85.42
2019-05-03T03:25:00.246Z,85.63
2019-05-03T03:26:00.250Z,85.94
2019-05-03T03:27:00.235Z,86.05
2019-05-03T03:28:00.236Z,85.94
2019-05-03T03:29:00.191Z,85.74
2019-05-03T03:30:00.207Z,85.74
2019-05-03T03:31:00.175Z,85.26
2019-05-03T03:32:00.206Z,85.47
2019-05-03T03:33:00.164Z,86.19
2019-05-03T03:34:00.165Z,85.47
2019-05-03T03:35:03.452Z,86.19
2019-05-03T03:36:29.419Z,86.19
2019-05-03T03:37:08.740Z,85.99
2019-05-03T03:38:01.124Z,85.88
2019-05-03T03:39:00.120Z,85.99
2019-05-03T03:40:00.184Z,85.88
2019-05-03T03:41:00.071Z,86.19
2019-05-03T03:42:00.055Z,85.78
2019-05-03T03:43:00.033Z,86.09
2019-05-03T03:44:00.058Z,86.09
2019-05-03T03:45:00.045Z,86.13
2019-05-03T03:45:59.999Z,86.44
2019-05-03T03:47:00.011Z,86.09
2019-05-03T03:47:59.977Z,86.09
2019-05-03T03:48:59.976Z,86.33
2019-05-03T03:50:00.007Z,86.54
2019-05-03T03:50:59.955Z,86.44
2019-05-03T03:51:59.956Z,86.23
2019-05-03T03:52:59.921Z,86.02
2019-05-03T03:53:59.926Z,86.33
2019-05-03T03:54:59.910Z,86.40
2019-05-03T03:55:59.912Z,86.44
2019-05-03T03:57:04.854Z,86.33
2019-05-03T03:58:00.866Z,86.02
2019-05-03T03:59:00.071Z,85.30
2019-05-03T03:59:59.860Z,86.13
2019-05-03T04:00:59.838Z,85.57
2019-05-03T04:01:59.820Z,85.50
2019-05-03T04:02:59.925Z,85.71
2019-05-03T04:03:59.836Z,85.71
2019-05-03T04:04:59.792Z,85.71
2019-05-03T04:05:59.777Z,85.05
2019-05-03T04:07:01.341Z,85.16
2019-05-03T04:07:59.765Z,85.57
2019-05-03T04:08:59.742Z,85.26
2019-05-03T04:09:59.755Z,85.36
2019-05-03T04:10:59.732Z,85.99
2019-05-03T04:11:59.707Z,85.68
2019-05-03T04:12:59.706Z,85.92
2019-05-03T04:13:59.686Z,86.02
2019-05-03T04:14:59.689Z,86.23
2019-05-03T04:15:59.689Z,85.61
2019-05-03T04:16:59.651Z,85.40
2019-05-03T04:17:59.668Z,85.71
2019-05-03T04:18:59.648Z,85.92
2019-05-03T04:19:59.640Z,85.61
2019-05-03T04:20:59.610Z,85.40
2019-05-03T04:21:59.722Z,85.82
2019-05-03T04:22:59.601Z,85.26
2019-05-03T04:23:59.605Z,86.02
2019-05-03T04:24:59.571Z,85.57
2019-05-03T04:25:59.642Z,84.53
2019-05-03T04:27:13.826Z,84.53
2019-05-03T04:28:00.564Z,84.95
2019-05-03T04:28:59.516Z,84.64
2019-05-03T04:29:59.527Z,84.43
2019-05-03T04:30:59.501Z,84.74
2019-05-03T04:31:59.486Z,84.64
2019-05-03T04:32:59.484Z,84.53
2019-05-03T04:33:59.495Z,85.26
2019-05-03T04:34:59.474Z,84.43
2019-05-03T04:35:59.462Z,84.74
2019-05-03T04:36:59.438Z,84.22
2019-05-03T04:37:59.442Z,84.33
2019-05-03T04:38:59.426Z,83.71
2019-05-03T04:39:59.422Z,83.91
2019-05-03T04:40:59.385Z,83.87
2019-05-03T04:41:59.421Z,84.12
2019-05-03T04:42:59.384Z,84.12
2019-05-03T04:43:59.349Z,84.12
2019-05-03T04:44:59.351Z,83.81
2019-05-03T04:45:59.363Z,83.81
2019-05-03T04:46:59.335Z,84.01
2019-05-03T04:47:59.348Z,83.19
2019-05-03T04:48:59.310Z,83.77
2019-05-03T04:49:59.317Z,83.67
2019-05-03T04:50:59.290Z,83.98
2019-05-03T04:51:59.302Z,83.98
2019-05-03T04:52:59.255Z,83.56
2019-05-03T04:53:59.242Z,83.22
2019-05-03T04:54:59.250Z,83.53
2019-05-03T04:55:59.230Z,83.46
2019-05-03T04:56:59.221Z,82.90
2019-05-03T04:57:59.213Z,82.80
2019-05-03T04:58:59.192Z,83.42
2019-05-03T04:59:59.206Z,83.01
2019-05-03T05:00:59.180Z,83.07
2019-05-03T05:01:59.176Z,82.50
2019-05-03T05:02:59.163Z,82.04
2019-05-03T05:03:59.143Z,82.35
2019-05-03T05:04:59.121Z,81.52
2019-05-03T05:05:59.602Z,81.42
2019-05-03T05:06:59.115Z,80.76
2019-05-03T05:07:59.097Z,80.25
2019-05-03T05:08:59.074Z,78.59
2019-05-03T05:09:59.071Z,75.97
2019-05-03T05:10:59.051Z,73.71
2019-05-03T05:11:59.044Z,70.42
2019-05-03T05:12:59.053Z,68.62
2019-05-03T05:13:59.026Z,66.56
2019-05-03T05:14:59.033Z,66.60
2019-05-03T05:15:58.993Z,65.18
2019-05-03T05:16:59.014Z,63.85
2019-05-03T05:17:59.002Z,63.07
2019-05-03T05:18:58.967Z,61.72
2019-05-03T05:19:58.958Z,62.88
2019-05-03T05:20:58.939Z,60.71
2019-05-03T05:21:58.932Z,58.42
2019-05-03T05:22:58.913Z,60.33
2019-05-03T05:23:58.941Z,60.74
2019-05-03T05:24:58.897Z,59.66
2019-05-03T05:25:58.917Z,57.93
2019-05-03T05:26:58.904Z,56.68
2019-05-03T05:27:58.859Z,57.39
2019-05-03T05:29:07.764Z,57.29
2019-05-03T05:29:58.838Z,57.78
2019-05-03T05:30:58.825Z,55.81
2019-05-03T05:31:58.818Z,55.41
2019-05-03T05:32:58.813Z,54.90
2019-05-03T05:33:58.806Z,56.32
2019-05-03T05:34:58.790Z,55.63
2019-05-03T05:35:58.769Z,56.83
2019-05-03T05:36:58.755Z,55.30
2019-05-03T05:37:58.748Z,54.94
2019-05-03T05:38:58.769Z,54.66
2019-05-03T05:39:58.733Z,55.28
2019-05-03T05:40:58.708Z,54.79
2019-05-03T05:41:58.697Z,56.09
2019-05-03T05:42:58.693Z,56.07
2019-05-03T05:43:58.681Z,56.55
2019-05-03T05:44:58.690Z,54.82
2019-05-03T05:45:59.037Z,56.02
2019-05-03T05:46:58.655Z,55.30
2019-05-03T05:47:58.630Z,54.87
2019-05-03T05:48:58.623Z,54.33
2019-05-03T05:49:58.637Z,53.88
2019-05-03T05:50:58.603Z,53.12
2019-05-03T05:51:58.584Z,51.06
2019-05-03T05:52:58.590Z,50.76
2019-05-03T05:53:58.560Z,52.63
2019-05-03T05:54:58.557Z,51.54
2019-05-03T05:55:58.557Z,52.66
2019-05-03T05:56:58.533Z,53.24
2019-05-03T05:58:04.776Z,51.84
2019-05-03T05:58:59.512Z,51.51
2019-05-03T05:59:58.497Z,52.03
2019-05-03T06:00:58.515Z,51.51
2019-05-03T06:01:58.481Z,50.07
2019-05-03T06:02:58.514Z,50.53
2019-05-03T06:03:58.465Z,49.19
2019-05-03T06:04:58.446Z,50.24
2019-05-03T06:05:58.469Z,54.39
2019-05-03T06:06:58.446Z,54.87
2019-05-03T06:07:58.418Z,54.72
2019-05-03T06:08:58.397Z,53.85
2019-05-03T06:09:58.387Z,51.56
2019-05-03T06:10:58.374Z,51.64
2019-05-03T06:11:58.450Z,50.17
2019-05-03T06:12:58.364Z,50.22
2019-05-03T06:13:58.355Z,51.82
2019-05-03T06:14:58.358Z,50.55
2019-05-03T06:15:58.325Z,51.44
2019-05-03T06:16:58.315Z,50.20
2019-05-03T06:17:58.315Z,49.76
2019-05-03T06:18:58.294Z,50.27
2019-05-03T06:19:58.281Z,49.69
2019-05-03T06:20:58.260Z,47.77
2019-05-03T06:21:58.273Z,48.18
2019-05-03T06:22:58.234Z,49.46
2019-05-03T06:23:58.233Z,50.78
2019-05-03T06:24:58.233Z,50.35
2019-05-03T06:25:58.206Z,49.38
2019-05-03T06:26:58.220Z,50.56
2019-05-03T06:27:58.193Z,49.29
2019-05-03T06:28:58.170Z,49.34
2019-05-03T06:30:14.854Z,48.61
2019-05-03T06:30:58.150Z,45.37
2019-05-03T06:31:58.136Z,46.30
2019-05-03T06:32:58.159Z,45.84
2019-05-03T06:33:58.145Z,49.41
2019-05-03T06:34:58.133Z,47.75
2019-05-03T06:35:58.109Z,48.05
2019-05-03T06:36:58.091Z,46.83
2019-05-03T06:37:58.100Z,49.21
2019-05-03T06:38:58.061Z,47.67
2019-05-03T06:39:58.054Z,48.71
2019-05-03T06:40:58.047Z,48.30
2019-05-03T06:41:58.024Z,46.86
2019-05-03T06:43:08.339Z,46.51
2019-05-03T06:43:59.000Z,49.40
2019-05-03T06:44:59.650Z,49.51
2019-05-03T06:45:59.009Z,49.28
2019-05-03T06:47:01.110Z,48.22
2019-05-03T06:47:58.954Z,46.49
2019-05-03T06:49:01.054Z,46.92
2019-05-03T06:50:05.567Z,51.86
2019-05-03T06:51:00.220Z,53.36
2019-05-03T06:51:58.935Z,53.42
2019-05-03T06:52:59.902Z,51.39
2019-05-03T06:53:58.891Z,50.36
2019-05-03T06:55:00.385Z,53.24
2019-05-03T06:55:58.865Z,52.00
2019-05-03T06:57:00.216Z,49.51
2019-05-03T06:57:58.857Z,49.16
2019-05-03T06:58:57.833Z,48.10
2019-05-03T06:59:57.827Z,46.83
2019-05-03T07:00:57.821Z,44.34
2019-05-03T07:01:57.820Z,44.32
2019-05-03T07:02:57.812Z,45.23
2019-05-03T07:03:57.782Z,44.49
2019-05-03T07:04:57.774Z,46.30
2019-05-03T07:05:57.753Z,42.19
2019-05-03T07:06:57.749Z,43.04
2019-05-03T07:07:57.737Z,42.47
2019-05-03T07:08:57.748Z,44.29
2019-05-03T07:09:57.714Z,42.61
2019-05-03T07:10:57.810Z,45.46
2019-05-03T07:11:57.689Z,47.86
2019-05-03T07:12:57.674Z,49.40
2019-05-03T07:13:57.675Z,51.65
2019-05-03T07:14:57.652Z,52.98
2019-05-03T07:15:57.653Z,54.82
2019-05-03T07:16:57.633Z,54.69
2019-05-03T07:17:57.627Z,52.01
2019-05-03T07:18:58.586Z,53.29
2019-05-03T07:19:57.639Z,52.01
2019-05-03T07:20:57.588Z,51.02
2019-05-03T07:21:57.576Z,51.22
2019-05-03T07:22:57.577Z,51.91
2019-05-03T07:23:57.550Z,52.70
2019-05-03T07:24:57.551Z,51.66
2019-05-03T07:25:57.532Z,50.52
2019-05-03T07:26:59.086Z,49.50
2019-05-03T07:27:57.507Z,51.28
2019-05-03T07:28:57.519Z,45.84
2019-05-03T07:29:57.499Z,46.23
2019-05-03T07:30:57.481Z,46.74
2019-05-03T07:31:57.460Z,48.27
2019-05-03T07:32:57.456Z,46.48
2019-05-03T07:33:57.438Z,49.19
2019-05-03T07:34:57.477Z,50.05
2019-05-03T07:35:57.435Z,49.95
2019-05-03T07:36:57.414Z,50.21
2019-05-03T07:37:57.470Z,49.68
2019-05-03T07:38:57.387Z,50.23
2019-05-03T07:39:57.378Z,51.13
2019-05-03T07:40:57.378Z,50.34
2019-05-03T07:41:57.353Z,50.03
2019-05-03T07:42:57.344Z,49.37
2019-05-03T07:43:57.350Z,49.45
2019-05-03T07:44:57.339Z,48.59
2019-05-03T07:45:57.312Z,48.11
2019-05-03T07:46:57.319Z,48.61
2019-05-03T07:47:57.296Z,48.92
2019-05-03T07:48:57.272Z,48.74
2019-05-03T07:49:57.264Z,49.42
2019-05-03T07:50:57.253Z,49.95
2019-05-03T07:51:57.254Z,50.81
2019-05-03T07:52:57.225Z,52.22
2019-05-03T07:53:57.221Z,52.09
2019-05-03T07:54:57.255Z,52.25
2019-05-03T07:56:05.293Z,50.86
2019-05-03T07:57:05.181Z,49.44
2019-05-03T07:58:04.721Z,47.44
2019-05-03T07:59:06.369Z,48.08
2019-05-03T07:59:57.165Z,46.11
2019-05-03T08:01:06.248Z,44.24
2019-05-03T08:01:58.130Z,43.18
2019-05-03T08:02:57.140Z,44.95
2019-05-03T08:03:57.103Z,42.66
2019-05-03T08:04:57.091Z,46.29
2019-05-03T08:05:57.127Z,44.95
2019-05-03T08:06:57.084Z,42.13
2019-05-03T08:07:57.083Z,44.28
2019-05-03T08:08:57.052Z,44.44
2019-05-03T08:09:57.035Z,45.03
2019-05-03T08:10:57.026Z,44.27
2019-05-03T08:11:57.038Z,42.17
2019-05-03T08:12:57.004Z,43.47
2019-05-03T08:13:57.010Z,43.53
2019-05-03T08:14:56.983Z,46.29
2019-05-03T08:15:56.972Z,44.36
2019-05-03T08:16:56.956Z,44.85
2019-05-03T08:17:57.010Z,42.82
2019-05-03T08:18:56.935Z,44.77
2019-05-03T08:19:56.925Z,47.30
2019-05-03T08:20:56.918Z,50.63
2019-05-03T08:21:56.962Z,50.81
2019-05-03T08:22:56.888Z,49.38
2019-05-03T08:23:56.892Z,50.66
2019-05-03T08:24:56.876Z,50.09
2019-05-03T08:25:56.865Z,50.24
2019-05-03T08:26:56.844Z,50.63
2019-05-03T08:27:56.851Z,51.34
2019-05-03T08:28:56.836Z,51.40
2019-05-03T08:29:56.855Z,49.67
2019-05-03T08:30:56.809Z,46.92
2019-05-03T08:31:56.794Z,48.03
2019-05-03T08:32:56.803Z,46.59
2019-05-03T08:33:56.799Z,47.53
2019-05-03T08:34:56.763Z,48.32
2019-05-03T08:35:56.772Z,46.71
2019-05-03T08:36:56.740Z,46.47
2019-05-03T08:37:56.723Z,45.24
2019-05-03T08:38:56.770Z,46.75
2019-05-03T08:39:56.739Z,44.51
2019-05-03T08:40:56.689Z,49.75
2019-05-03T08:41:56.697Z,47.58
2019-05-03T08:42:56.679Z,47.28
2019-05-03T08:43:56.653Z,46.52
2019-05-03T08:44:56.645Z,44.81
2019-05-03T08:45:56.654Z,43.85
2019-05-03T08:46:56.624Z,43.02
2019-05-03T08:47:56.617Z,42.76
2019-05-03T08:48:56.613Z,41.68
2019-05-03T08:49:56.591Z,42.31
2019-05-03T08:50:56.648Z,43.73
2019-05-03T08:51:56.565Z,43.38
2019-05-03T08:52:56.555Z,44.87
2019-05-03T08:53:56.549Z,44.69
2019-05-03T08:54:56.531Z,47.09
2019-05-03T08:55:56.558Z,46.33
2019-05-03T08:56:56.569Z,48.57
2019-05-03T08:57:56.550Z,47.37
2019-05-03T08:58:56.485Z,48.26
2019-05-03T08:59:56.540Z,44.75
2019-05-03T09:00:56.467Z,46.34
2019-05-03T09:01:56.502Z,44.57
2019-05-03T09:02:56.466Z,45.87
2019-05-03T09:03:56.439Z,45.20
2019-05-03T09:04:56.422Z,46.56
2019-05-03T09:05:56.621Z,49.54
2019-05-03T09:06:56.407Z,49.18
2019-05-03T09:07:56.414Z,52.37
2019-05-03T09:08:57.220Z,51.27
2019-05-03T09:09:56.388Z,51.27
2019-05-03T09:10:56.357Z,51.29
2019-05-03T09:11:56.349Z,51.98
2019-05-03T09:12:56.329Z,51.09
2019-05-03T09:13:56.335Z,51.53
2019-05-03T09:14:56.318Z,51.45
2019-05-03T09:15:56.366Z,50.44
2019-05-03T09:16:56.286Z,48.56
2019-05-03T09:17:56.300Z,46.28
2019-05-03T09:18:56.315Z,46.70
2019-05-03T09:19:56.301Z,43.02
2019-05-03T09:20:56.239Z,43.06
2019-05-03T09:21:56.244Z,41.77
2019-05-03T09:22:56.219Z,42.21
2019-05-03T09:23:56.207Z,42.35
2019-05-03T09:24:56.244Z,41.35
2019-05-03T09:25:56.187Z,40.77
2019-05-03T09:26:56.173Z,42.17
2019-05-03T09:27:56.168Z,42.25
2019-05-03T09:28:56.151Z,40.38
2019-05-03T09:29:56.150Z,40.79
2019-05-03T09:30:56.165Z,42.23
2019-05-03T09:31:56.118Z,42.29
2019-05-03T09:32:56.104Z,42.43
2019-05-03T09:33:56.092Z,43.47
2019-05-03T09:34:56.084Z,43.47
2019-05-03T09:35:56.080Z,43.26
2019-05-03T09:36:56.071Z,44.43
2019-05-03T09:37:56.054Z,44.65
2019-05-03T09:38:56.048Z,44.98
2019-05-03T09:39:56.046Z,45.43
2019-05-03T09:40:56.052Z,47.52
2019-05-03T09:41:56.017Z,47.90
2019-05-03T09:42:55.995Z,44.38
2019-05-03T09:43:55.983Z,44.18
2019-05-03T09:44:55.973Z,44.73
2019-05-03T09:45:55.958Z,43.08
2019-05-03T09:46:55.971Z,44.89
2019-05-03T09:47:55.954Z,42.41
2019-05-03T09:49:03.320Z,44.93
2019-05-03T09:49:56.917Z,42.83
2019-05-03T09:50:55.919Z,44.53
2019-05-03T09:51:55.916Z,42.00
2019-05-03T09:52:55.912Z,42.96
2019-05-03T09:53:55.912Z,40.84
2019-05-03T09:54:55.858Z,41.74
2019-05-03T09:55:55.855Z,41.56
2019-05-03T09:56:58.407Z,42.98
2019-05-03T09:57:55.827Z,42.80
2019-05-03T09:58:55.879Z,44.22
2019-05-03T09:59:59.780Z,43.10
2019-05-03T10:00:55.812Z,42.92
2019-05-03T10:01:55.786Z,44.69
2019-05-03T10:02:55.784Z,44.61
2019-05-03T10:03:55.799Z,44.46
2019-05-03T10:04:55.757Z,46.73
2019-05-03T10:05:55.742Z,47.14
2019-05-03T10:06:55.744Z,47.12
2019-05-03T10:07:55.765Z,48.19
2019-05-03T10:08:55.776Z,46.26
2019-05-03T10:09:55.705Z,47.30
2019-05-03T10:10:55.688Z,48.02
2019-05-03T10:11:55.698Z,46.28
2019-05-03T10:12:55.720Z,46.63
2019-05-03T10:13:56.431Z,50.12
2019-05-03T10:14:55.657Z,49.62
2019-05-03T10:15:55.631Z,49.22
2019-05-03T10:16:55.612Z,49.76
2019-05-03T10:17:55.646Z,48.56
2019-05-03T10:18:55.682Z,50.09
2019-05-03T10:19:55.578Z,50.12
2019-05-03T10:20:56.262Z,50.30
2019-05-03T10:21:55.564Z,49.27
2019-05-03T10:22:55.568Z,49.71
2019-05-03T10:23:55.532Z,49.60
2019-05-03T10:24:55.546Z,50.12
2019-05-03T10:25:55.522Z,49.73
2019-05-03T10:26:55.497Z,50.04
2019-05-03T10:27:55.486Z,50.04
2019-05-03T10:28:55.509Z,50.47
2019-05-03T10:30:09.370Z,51.80
2019-05-03T10:30:56.479Z,50.24
2019-05-03T10:31:55.458Z,51.26
2019-05-03T10:32:55.431Z,50.63
2019-05-03T10:33:55.428Z,50.09
2019-05-03T10:34:55.541Z,48.43
2019-05-03T10:35:55.409Z,47.24
2019-05-03T10:36:55.403Z,48.14
2019-05-03T10:37:55.405Z,46.38
2019-05-03T10:38:55.625Z,46.69
2019-05-03T10:39:55.999Z,45.98
2019-05-03T10:40:55.358Z,44.85
2019-05-03T10:41:55.374Z,45.65
2019-05-03T10:42:55.427Z,44.55
2019-05-03T10:43:55.767Z,44.55
2019-05-03T10:44:55.603Z,45.14
2019-05-03T10:45:55.854Z,44.83
2019-05-03T10:46:55.924Z,44.55
2019-05-03T10:47:55.260Z,43.75
2019-05-03T10:48:55.769Z,45.08
2019-05-03T10:49:55.243Z,46.94
2019-05-03T10:50:56.386Z,46.34
2019-05-03T10:51:55.257Z,47.20
2019-05-03T10:52:55.630Z,49.58
2019-05-03T10:53:55.207Z,49.35
2019-05-03T10:54:55.847Z,48.64
2019-05-03T10:55:55.673Z,48.74
2019-05-03T10:56:55.902Z,47.52
2019-05-03T10:57:55.165Z,48.94
2019-05-03T10:58:55.165Z,48.51
2019-05-03T10:59:55.585Z,48.54
2019-05-03T11:00:56.745Z,48.02
2019-05-03T11:01:55.134Z,48.82
2019-05-03T11:02:55.151Z,47.39
2019-05-03T11:03:55.116Z,47.06
2019-05-03T11:04:55.090Z,47.53
2019-05-03T11:05:55.057Z,46.48
2019-05-03T11:06:55.264Z,45.73
2019-05-03T11:07:55.643Z,45.10
2019-05-03T11:08:55.030Z,44.95
2019-05-03T11:09:55.252Z,43.20
2019-05-03T11:10:55.086Z,43.04
2019-05-03T11:11:55.581Z,41.91
2019-05-03T11:12:54.994Z,44.48
2019-05-03T11:13:54.999Z,40.69
2019-05-03T11:14:54.970Z,38.47
2019-05-03T11:15:55.001Z,39.26
2019-05-03T11:16:55.399Z,39.08
2019-05-03T11:17:55.032Z,39.49
2019-05-03T11:18:55.010Z,39.49
2019-05-03T11:19:54.913Z,39.69
2019-05-03T11:20:54.911Z,39.57
2019-05-03T11:21:54.933Z,38.86
2019-05-03T11:22:54.869Z,40.18
2019-05-03T11:23:54.859Z,40.77
2019-05-03T11:24:54.895Z,38.45
2019-05-03T11:25:55.408Z,39.79
2019-05-03T11:26:55.807Z,40.32
2019-05-03T11:27:55.237Z,40.14
2019-05-03T11:30:01.894Z,42.07
2019-05-03T11:31:02.524Z,41.05
2019-05-03T11:32:01.883Z,42.49
2019-05-03T11:33:01.826Z,41.38
2019-05-03T11:34:01.838Z,40.58
2019-05-03T11:35:01.812Z,42.21
2019-05-03T11:36:01.810Z,42.92
2019-05-03T11:37:01.803Z,42.53
2019-05-03T11:38:01.770Z,42.43
2019-05-03T11:39:01.795Z,42.21
2019-05-03T11:40:01.782Z,42.00
2019-05-03T11:41:01.763Z,42.10
2019-05-03T11:42:01.724Z,41.72
2019-05-03T11:43:01.740Z,43.00
2019-05-03T11:44:01.722Z,45.04
2019-05-03T11:45:01.698Z,44.75
2019-05-03T11:46:01.713Z,44.38
2019-05-03T11:47:01.688Z,46.14
2019-05-03T11:48:01.681Z,46.86
2019-05-03T11:49:01.651Z,47.00
2019-05-03T11:50:01.683Z,47.82
2019-05-03T11:51:01.652Z,48.41
2019-05-03T11:52:01.751Z,47.90
2019-05-03T11:53:01.621Z,49.46
2019-05-03T11:54:01.609Z,49.58
2019-05-03T11:55:01.673Z,48.66
2019-05-03T11:56:01.606Z,48.35
2019-05-03T11:57:01.607Z,48.79
2019-05-03T11:58:01.560Z,49.71
2019-05-03T11:59:01.536Z,50.42
2019-05-03T12:00:01.546Z,50.52
2019-05-03T12:01:14.986Z,49.60
2019-05-03T12:02:04.703Z,49.58
2019-05-03T12:03:01.495Z,48.74
2019-05-03T12:04:01.490Z,48.84
2019-05-03T12:05:01.469Z,48.64
2019-05-03T12:06:01.533Z,49.25
2019-05-03T12:07:01.462Z,48.51
2019-05-03T12:08:01.456Z,48.28
2019-05-03T12:09:01.432Z,47.45
2019-05-03T12:10:01.413Z,48.67
2019-05-03T12:11:01.754Z,46.51
2019-05-03T12:12:01.433Z,48.44
2019-05-03T12:13:01.373Z,46.10
2019-05-03T12:14:04.458Z,46.53
2019-05-03T12:15:04.280Z,47.20
2019-05-03T12:16:01.620Z,47.09
2019-05-03T12:17:17.176Z,46.67
2019-05-03T12:18:03.261Z,47.50
2019-05-03T12:19:15.716Z,46.97
2019-05-03T12:20:03.629Z,44.45
2019-05-03T12:21:02.452Z,44.78
2019-05-03T12:22:01.858Z,44.57
2019-05-03T12:23:02.053Z,45.10
2019-05-03T12:24:01.998Z,44.49
2019-05-03T12:25:01.950Z,45.59
2019-05-03T12:26:01.857Z,44.90
2019-05-03T12:27:01.213Z,45.12
2019-05-03T12:28:01.233Z,45.02
2019-05-03T12:29:01.211Z,45.81
2019-05-03T12:30:01.204Z,46.00
2019-05-03T12:31:01.177Z,45.92
2019-05-03T12:32:01.175Z,47.16
2019-05-03T12:33:01.155Z,47.47
2019-05-03T12:34:01.143Z,47.86
2019-05-03T12:35:01.169Z,46.33
2019-05-03T12:36:01.125Z,46.92
2019-05-03T12:37:01.103Z,46.92
2019-05-03T12:38:01.094Z,47.30
2019-05-03T12:39:01.094Z,45.95
2019-05-03T12:40:01.104Z,47.03
2019-05-03T12:41:01.057Z,46.07
2019-05-03T12:42:01.053Z,45.03
2019-05-03T12:43:01.050Z,44.53
2019-05-03T12:44:01.047Z,44.97
2019-05-03T12:45:01.042Z,46.48
2019-05-03T12:46:01.001Z,45.07
2019-05-03T12:47:02.568Z,45.87
2019-05-03T12:48:00.979Z,45.18
2019-05-03T12:49:00.969Z,45.07
2019-05-03T12:50:00.971Z,43.77
2019-05-03T12:51:01.515Z,45.01
2019-05-03T12:52:00.941Z,45.22
2019-05-03T12:53:00.938Z,44.71